Time;durP1;ratioP1;P1;durP2;ratioP2;P2;SDS_P1;SDS_P2;PMS_P1;PMS_P2;Temp;Humidity;BMP_temperature;BMP_pressure;BME280_temperature;BME280_humidity;BME280_pressure;Samples;Min_cycle;Max_cycle;Signal;HPM_P1;HPM_P2
2022/01/11 00:00:24;;;;;;;37.33;20.10;;;1.90;99.90;;;;;;5050759;28;20176;-78
2022/01/11 00:02:52;;;;;;;42.33;21.98;;;1.80;99.90;;;;;;5031806;28;20684;-77
2022/01/11 00:05:25;;;;;;;45.03;21.17;;;1.80;99.90;;;;;;5050602;28;20659;-78
2022/01/11 00:07:55;;;;;;;46.00;22.33;;;1.80;99.90;;;;;;5049372;28;20188;-78
2022/01/11 00:10:28;;;;;;;38.78;20.23;;;1.80;99.90;;;;;;5031973;28;20181;-77
2022/01/11 00:12:59;;;;;;;36.92;21.17;;;1.80;99.90;;;;;;5050325;28;20165;-78
2022/01/11 00:15:25;;;;;;;39.50;22.23;;;1.90;99.90;;;;;;5016532;28;20846;-77
2022/01/11 00:17:51;;;;;;;50.67;23.10;;;1.80;99.90;;;;;;5050694;28;20184;-77
2022/01/11 00:20:19;;;;;;;43.40;22.53;;;1.60;99.90;;;;;;5032706;28;20520;-77
2022/01/11 00:25:28;;;;;;;41.72;21.15;;;1.80;99.90;;;;;;5050171;28;20174;-77
2022/01/11 00:27:55;;;;;;;46.53;23.08;;;1.80;99.90;;;;;;5049902;28;20174;-79
2022/01/11 00:30:22;;;;;;;45.08;22.58;;;1.80;99.90;;;;;;5050802;28;20193;-78
2022/01/11 00:32:52;;;;;;;50.90;24.20;;;1.80;99.90;;;;;;5032849;28;20180;-79
2022/01/11 00:35:22;;;;;;;35.10;18.90;;;1.80;99.90;;;;;;5033274;28;20227;-77
2022/01/11 00:37:49;;;;;;;37.90;20.67;;;1.80;99.90;;;;;;5033490;28;20299;-77
2022/01/11 00:40:14;;;;;;;45.97;21.33;;;1.80;99.90;;;;;;5050807;28;20654;-77
2022/01/11 00:42:40;;;;;;;39.40;19.50;;;1.80;99.90;;;;;;5033112;28;20192;-77
2022/01/11 00:45:12;;;;;;;32.37;19.00;;;1.70;99.90;;;;;;5050510;28;20218;-78
2022/01/11 00:47:38;;;;;;;50.63;22.10;;;1.70;99.90;;;;;;5033821;28;20438;-78
2022/01/11 00:50:06;;;;;;;40.80;21.67;;;1.70;99.90;;;;;;5032671;28;20270;-79
2022/01/11 00:52:32;;;;;;;48.70;21.77;;;1.70;99.90;;;;;;5032315;28;20176;-77
2022/01/11 00:54:58;;;;;;;40.70;21.50;;;1.70;99.90;;;;;;5032003;28;20209;-78
2022/01/11 00:57:24;;;;;;;41.20;21.60;;;1.80;99.90;;;;;;5032054;28;20182;-78
2022/01/11 00:59:49;;;;;;;37.43;20.23;;;1.70;99.90;;;;;;5032159;28;20183;-78
2022/01/11 01:02:15;;;;;;;41.33;22.00;;;1.70;99.90;;;;;;5049063;28;20408;-77
2022/01/11 01:04:41;;;;;;;45.67;21.70;;;1.70;99.90;;;;;;5052591;28;20199;-79
2022/01/11 01:07:07;;;;;;;46.97;23.03;;;1.70;99.90;;;;;;5020403;28;20192;-79
2022/01/11 01:09:50;;;;;;;40.72;21.55;;;1.60;99.90;;;;;;5054375;28;20234;-79
2022/01/11 01:12:16;;;;;;;50.15;23.92;;;1.60;99.90;;;;;;5037535;28;20425;-77
2022/01/11 01:14:41;;;;;;;47.63;23.93;;;1.60;99.90;;;;;;5037054;28;20967;-78
2022/01/11 01:17:07;;;;;;;60.47;25.07;;;1.60;99.90;;;;;;5054741;28;20222;-79
2022/01/11 01:19:32;;;;;;;51.57;23.50;;;1.60;99.90;;;;;;5035643;28;20181;-78
2022/01/11 01:21:58;;;;;;;52.33;22.27;;;1.60;99.90;;;;;;5034955;28;20205;-79
2022/01/11 01:24:24;;;;;;;58.03;22.73;;;1.60;99.90;;;;;;5052680;28;20236;-78
2022/01/11 01:26:50;;;;;;;46.87;22.90;;;1.60;99.90;;;;;;5052595;28;20275;-78
2022/01/11 01:29:15;;;;;;;42.17;23.97;;;1.60;99.90;;;;;;5052704;28;20782;-78
2022/01/11 01:31:41;;;;;;;42.03;21.30;;;1.60;99.90;;;;;;5018055;28;20188;-78
2022/01/11 01:34:07;;;;;;;65.93;22.80;;;1.50;99.90;;;;;;5052352;28;20298;-78
2022/01/11 01:36:32;;;;;;;44.30;21.90;;;1.50;99.90;;;;;;5052109;28;20688;-79
2022/01/11 01:38:58;;;;;;;44.30;20.93;;;1.50;99.90;;;;;;5034661;28;20184;-76
2022/01/11 01:41:24;;;;;;;41.07;21.00;;;1.60;99.90;;;;;;5052920;28;20195;-77
2022/01/11 01:43:55;;;;;;;47.80;23.70;;;1.30;99.90;;;;;;5034348;28;20208;-77
2022/01/11 01:46:22;;;;;;;49.20;22.60;;;1.40;99.90;;;;;;5052461;28;20517;-79
2022/01/11 01:48:48;;;;;;;44.22;19.92;;;1.40;99.90;;;;;;5034507;28;20545;-77
2022/01/11 01:51:14;;;;;;;44.85;21.83;;;1.40;99.90;;;;;;5052341;28;20184;-77
2022/01/11 01:53:44;;;;;;;44.85;21.55;;;1.50;99.90;;;;;;5033810;28;20216;-77
2022/01/11 01:56:10;;;;;;;58.53;24.02;;;1.50;99.90;;;;;;5051233;28;20216;-77
2022/01/11 01:58:37;;;;;;;42.58;22.85;;;1.50;99.90;;;;;;5051277;28;20199;-78
2022/01/11 02:01:04;;;;;;;47.30;23.65;;;1.50;99.90;;;;;;5051490;28;20176;-77
2022/01/11 02:03:38;;;;;;;43.08;23.02;;;1.50;99.90;;;;;;5051214;28;20274;-77
2022/01/11 02:06:08;;;;;;;55.78;25.23;;;1.50;99.90;;;;;;5051490;28;20174;-78
2022/01/11 02:08:34;;;;;;;48.53;24.38;;;1.50;99.90;;;;;;5053279;28;20613;-78
2022/01/11 02:11:00;;;;;;;49.73;23.73;;;1.50;99.90;;;;;;5034604;28;20282;-78
2022/01/11 02:13:26;;;;;;;47.47;23.20;;;1.50;99.90;;;;;;5034504;28;20448;-77
2022/01/11 02:15:52;;;;;;;48.17;23.60;;;1.50;99.90;;;;;;5051345;28;20337;-77
2022/01/11 02:18:23;;;;;;;51.22;24.00;;;1.50;99.90;;;;;;5034610;28;20270;-78
2022/01/11 02:20:50;;;;;;;50.47;23.63;;;1.50;99.90;;;;;;5052119;28;20657;-78
2022/01/11 02:23:18;;;;;;;58.67;24.92;;;1.50;99.90;;;;;;5052481;28;20250;-79
2022/01/11 02:25:44;;;;;;;55.25;23.70;;;1.40;99.90;;;;;;5052731;28;20279;-78
2022/01/11 02:28:16;;;;;;;46.45;23.42;;;1.40;99.90;;;;;;5033772;28;20330;-77
2022/01/11 02:30:42;;;;;;;45.10;22.15;;;1.40;99.90;;;;;;5052076;28;20192;-79
2022/01/11 02:33:17;;;;;;;45.03;23.33;;;1.40;99.90;;;;;;5033393;28;20555;-78
2022/01/11 02:35:50;;;;;;;48.28;22.33;;;1.50;99.90;;;;;;5051828;28;20203;-78
2022/01/11 02:38:15;;;;;;;49.03;23.00;;;1.50;99.90;;;;;;5051982;28;20274;-78
2022/01/11 02:40:42;;;;;;;40.23;21.30;;;1.40;99.90;;;;;;5051679;28;20231;-77
2022/01/11 02:43:08;;;;;;;51.03;21.95;;;1.40;99.90;;;;;;5051752;28;20278;-78
2022/01/11 02:45:33;;;;;;;46.23;22.57;;;1.40;99.90;;;;;;5052618;28;20238;-78
2022/01/11 02:47:59;;;;;;;40.30;22.07;;;1.40;99.90;;;;;;5033481;28;20223;-78
2022/01/11 02:50:25;;;;;;;48.80;23.70;;;1.40;99.90;;;;;;5033141;28;20368;-78
2022/01/11 02:52:51;;;;;;;42.03;22.63;;;1.40;99.90;;;;;;5051227;28;20181;-78
2022/01/11 02:55:17;;;;;;;43.63;23.20;;;1.40;99.90;;;;;;5033052;28;20223;-77
2022/01/11 02:57:44;;;;;;;39.23;22.53;;;1.40;99.90;;;;;;5033064;28;20448;-77
2022/01/11 03:00:14;;;;;;;42.17;20.40;;;1.40;99.90;;;;;;5050283;28;21305;-77
2022/01/11 03:02:40;;;;;;;43.70;21.05;;;1.40;99.90;;;;;;5050056;28;20189;-77
2022/01/11 03:05:08;;;;;;;44.70;21.10;;;1.40;99.90;;;;;;5051025;28;20995;-77
2022/01/11 03:07:34;;;;;;;44.42;20.52;;;1.40;99.90;;;;;;5015804;28;20185;-77
2022/01/11 03:10:06;;;;;;;44.50;22.60;;;1.40;99.90;;;;;;5049773;28;20187;-78
2022/01/11 03:12:32;;;;;;;46.65;20.83;;;1.40;99.90;;;;;;5049812;28;20165;-77
2022/01/11 03:14:58;;;;;;;39.40;21.27;;;1.50;99.90;;;;;;5050090;28;20334;-78
2022/01/11 03:17:25;;;;;;;39.75;21.42;;;1.60;99.90;;;;;;5050457;28;20672;-79
2022/01/11 03:19:52;;;;;;;40.38;21.85;;;1.70;99.90;;;;;;5050953;28;20183;-78
2022/01/11 03:22:17;;;;;;;50.92;24.02;;;1.50;99.90;;;;;;5017080;28;20181;-77
2022/01/11 03:24:44;;;;;;;52.37;23.27;;;1.50;99.90;;;;;;5032550;28;20230;-77
2022/01/11 03:27:10;;;;;;;51.45;23.95;;;1.50;99.90;;;;;;5055357;28;20188;-79
2022/01/11 03:29:38;;;;;;;44.22;22.80;;;1.50;99.90;;;;;;5035838;28;20196;-79
2022/01/11 03:32:07;;;;;;;46.00;21.98;;;1.50;99.90;;;;;;5017137;28;20188;-80
2022/01/11 03:34:33;;;;;;;47.35;23.00;;;1.50;99.90;;;;;;5051352;28;20234;-80
2022/01/11 03:37:00;;;;;;;50.28;22.80;;;1.50;99.90;;;;;;5032693;28;20577;-79
2022/01/11 03:39:26;;;;;;;44.78;22.60;;;1.50;99.90;;;;;;5033545;28;20190;-79
2022/01/11 03:41:52;;;;;;;44.75;24.55;;;1.50;99.90;;;;;;5033824;28;20255;-80
2022/01/11 03:44:18;;;;;;;45.92;23.20;;;1.50;99.90;;;;;;5052281;28;20209;-80
2022/01/11 03:46:44;;;;;;;41.53;23.00;;;1.50;99.90;;;;;;5051928;28;20180;-80
2022/01/11 03:49:10;;;;;;;42.27;21.37;;;1.50;99.90;;;;;;5050629;28;20208;-79
2022/01/11 03:51:38;;;;;;;53.57;23.73;;;1.50;99.90;;;;;;5016827;28;20459;-80
2022/01/11 03:54:11;;;;;;;47.42;24.55;;;1.50;99.90;;;;;;5016914;28;20217;-79
2022/01/11 03:56:37;;;;;;;45.90;22.80;;;1.60;99.90;;;;;;5016129;28;20215;-77
2022/01/11 03:59:08;;;;;;;41.55;22.08;;;1.50;99.90;;;;;;5049969;28;20809;-77
2022/01/11 04:01:35;;;;;;;48.00;23.50;;;1.50;99.90;;;;;;5050077;28;20244;-79
2022/01/11 04:04:01;;;;;;;44.97;24.30;;;1.60;99.90;;;;;;5049446;28;20609;-78
2022/01/11 04:06:27;;;;;;;44.40;21.75;;;1.60;99.90;;;;;;5031538;28;20181;-78
2022/01/11 04:08:53;;;;;;;38.73;22.60;;;1.60;99.90;;;;;;5031506;28;20267;-78
2022/01/11 04:11:20;;;;;;;41.75;22.55;;;1.60;99.90;;;;;;5049519;28;20189;-75
2022/01/11 04:13:47;;;;;;;46.83;23.77;;;1.60;99.90;;;;;;5014788;28;20211;-76
2022/01/11 04:16:13;;;;;;;56.25;23.35;;;1.60;99.90;;;;;;5049414;28;20708;-77
2022/01/11 04:18:39;;;;;;;44.00;22.10;;;1.60;99.90;;;;;;5049208;28;20602;-78
2022/01/11 04:21:04;;;;;;;49.13;23.77;;;1.60;99.90;;;;;;5049813;28;20188;-79
2022/01/11 04:23:31;;;;;;;39.93;21.03;;;1.60;99.90;;;;;;5049332;28;20255;-79
2022/01/11 04:25:57;;;;;;;52.08;24.10;;;1.70;99.90;;;;;;5031370;28;20913;-79
2022/01/11 04:28:23;;;;;;;47.67;24.03;;;1.70;99.90;;;;;;5031755;28;20195;-79
2022/01/11 04:30:50;;;;;;;44.43;24.07;;;1.70;99.90;;;;;;5030839;28;20610;-78
2022/01/11 04:33:16;;;;;;;56.42;25.80;;;1.70;99.90;;;;;;5013821;28;20921;-79
2022/01/11 04:35:44;;;;;;;48.27;24.10;;;1.70;99.90;;;;;;5013655;28;20231;-78
2022/01/11 04:38:10;;;;;;;54.13;25.77;;;1.70;99.90;;;;;;5048344;28;20620;-78
2022/01/11 04:40:36;;;;;;;50.88;23.70;;;1.70;99.90;;;;;;5051826;28;20196;-78
2022/01/11 04:43:02;;;;;;;39.47;21.47;;;1.70;99.90;;;;;;5034332;28;20176;-77
2022/01/11 04:45:28;;;;;;;52.13;24.20;;;1.60;99.90;;;;;;5052148;28;20187;-77
2022/01/11 04:47:56;;;;;;;63.10;22.73;;;1.60;99.90;;;;;;5052235;28;20422;-77
2022/01/11 04:50:26;;;;;;;47.45;22.88;;;1.50;99.90;;;;;;5034198;28;20431;-77
2022/01/11 04:52:52;;;;;;;62.00;23.85;;;1.60;99.90;;;;;;5034597;28;20661;-77
2022/01/11 04:55:17;;;;;;;48.77;26.10;;;1.60;99.90;;;;;;5052073;28;20191;-78
2022/01/11 04:57:43;;;;;;;57.60;26.90;;;1.60;99.90;;;;;;5033970;28;20574;-79
2022/01/11 05:00:10;;;;;;;62.13;27.60;;;1.60;99.90;;;;;;5052069;28;20191;-78
2022/01/11 05:02:36;;;;;;;67.50;28.70;;;1.60;99.90;;;;;;5033833;28;20234;-77
2022/01/11 05:05:02;;;;;;;53.45;26.75;;;1.60;99.90;;;;;;5033631;28;20243;-78
2022/01/11 05:07:28;;;;;;;64.13;26.90;;;1.50;99.90;;;;;;5034083;28;20184;-77
2022/01/11 05:09:54;;;;;;;51.93;24.03;;;1.50;99.90;;;;;;5033806;28;20206;-77
2022/01/11 05:12:20;;;;;;;72.23;25.63;;;1.50;99.90;;;;;;5051554;28;20180;-77
2022/01/11 05:14:45;;;;;;;66.32;26.00;;;1.50;99.90;;;;;;5052479;28;20206;-78
2022/01/11 05:17:11;;;;;;;45.73;24.23;;;1.40;99.90;;;;;;5034399;28;20655;-76
2022/01/11 05:19:37;;;;;;;60.93;26.43;;;1.40;99.90;;;;;;5052448;28;20317;-78
2022/01/11 05:22:02;;;;;;;47.20;24.63;;;1.50;99.90;;;;;;5033839;28;20178;-77
2022/01/11 05:24:28;;;;;;;57.33;27.57;;;1.40;99.90;;;;;;5051383;28;20343;-77
2022/01/11 05:26:54;;;;;;;58.77;27.07;;;1.50;99.90;;;;;;5051478;28;20234;-78
2022/01/11 05:29:19;;;;;;;46.23;25.23;;;1.40;99.90;;;;;;5052125;28;20663;-77
2022/01/11 05:31:45;;;;;;;66.60;28.80;;;1.30;99.90;;;;;;5052352;28;20246;-78
2022/01/11 05:34:11;;;;;;;44.73;23.77;;;1.50;99.90;;;;;;5052143;28;20223;-79
2022/01/11 05:36:36;;;;;;;68.33;25.40;;;1.40;99.90;;;;;;5034152;28;20808;-79
2022/01/11 05:39:03;;;;;;;54.13;25.10;;;1.40;99.90;;;;;;5052317;28;20659;-79
2022/01/11 05:41:30;;;;;;;47.53;24.50;;;1.40;99.90;;;;;;5052257;28;20177;-78
2022/01/11 05:43:56;;;;;;;51.53;24.80;;;1.40;99.90;;;;;;5017417;28;20210;-78
2022/01/11 05:46:22;;;;;;;60.73;25.20;;;1.50;99.90;;;;;;5033985;28;20185;-79
2022/01/11 05:48:48;;;;;;;49.37;23.43;;;1.60;99.90;;;;;;5052143;28;20185;-79
2022/01/11 05:51:14;;;;;;;59.20;25.10;;;1.50;99.90;;;;;;5051581;28;20256;-79
2022/01/11 05:53:41;;;;;;;44.88;22.83;;;1.50;99.90;;;;;;5051879;28;20215;-79
2022/01/11 05:56:07;;;;;;;59.97;26.02;;;1.60;99.90;;;;;;5033703;28;20228;-78
2022/01/11 05:58:33;;;;;;;52.43;24.67;;;1.60;99.90;;;;;;5051377;28;20191;-80
2022/01/11 06:00:58;;;;;;;59.10;24.33;;;1.70;99.90;;;;;;5033151;28;20567;-79
2022/01/11 06:03:24;;;;;;;52.50;25.67;;;1.70;99.90;;;;;;5051092;28;20447;-78
2022/01/11 06:05:50;;;;;;;52.93;25.87;;;1.70;99.90;;;;;;5015590;28;20437;-78
2022/01/11 06:08:16;;;;;;;62.33;26.10;;;1.70;99.90;;;;;;5032805;28;20184;-79
2022/01/11 06:10:44;;;;;;;61.42;24.48;;;1.70;99.90;;;;;;5031665;28;20569;-79
2022/01/11 06:13:10;;;;;;;59.03;29.98;;;1.70;99.90;;;;;;5051018;28;20189;-79
2022/01/11 06:15:36;;;;;;;62.58;29.15;;;1.70;99.90;;;;;;5032328;28;20738;-77
2022/01/11 06:18:02;;;;;;;79.20;26.97;;;1.80;99.90;;;;;;5032086;28;20285;-78
2022/01/11 06:20:27;;;;;;;60.10;26.10;;;1.80;99.90;;;;;;5032461;28;20901;-78
2022/01/11 06:22:53;;;;;;;80.97;30.33;;;1.70;99.90;;;;;;5031958;28;20192;-78
2022/01/11 06:25:19;;;;;;;77.07;30.07;;;1.70;99.90;;;;;;5050118;28;20213;-78
2022/01/11 06:27:45;;;;;;;76.45;29.63;;;1.70;99.90;;;;;;5050291;28;20178;-78
2022/01/11 06:30:12;;;;;;;77.87;28.77;;;1.70;99.90;;;;;;5015145;28;20185;-78
2022/01/11 06:32:38;;;;;;;56.13;28.30;;;1.70;99.90;;;;;;5031991;28;20195;-77
2022/01/11 06:35:06;;;;;;;58.88;28.48;;;1.70;99.90;;;;;;5049538;28;20600;-78
2022/01/11 06:37:31;;;;;;;56.83;26.67;;;1.70;99.90;;;;;;5032575;28;20188;-78
2022/01/11 06:39:57;;;;;;;70.57;30.97;;;1.70;99.90;;;;;;5050724;28;20184;-78
2022/01/11 06:42:23;;;;;;;67.80;26.63;;;1.70;99.90;;;;;;5032789;28;20187;-78
2022/01/11 06:44:48;;;;;;;57.47;28.00;;;1.50;99.90;;;;;;5050257;28;20618;-78
2022/01/11 06:47:14;;;;;;;57.87;25.50;;;1.70;99.90;;;;;;5050556;28;20832;-77
2022/01/11 06:49:40;;;;;;;64.13;25.83;;;1.70;99.90;;;;;;5050218;28;20234;-78
2022/01/11 06:52:06;;;;;;;77.93;28.20;;;1.70;99.90;;;;;;5031985;28;20189;-78
2022/01/11 06:54:32;;;;;;;66.63;28.45;;;1.70;99.90;;;;;;5049638;28;20560;-79
2022/01/11 06:56:58;;;;;;;67.68;27.92;;;1.70;99.90;;;;;;5015252;28;20746;-77
2022/01/11 06:59:24;;;;;;;75.30;28.70;;;1.70;99.90;;;;;;5031975;28;20185;-78
2022/01/11 07:01:50;;;;;;;58.42;28.35;;;1.70;99.90;;;;;;5031559;28;20189;-77
2022/01/11 07:04:15;;;;;;;62.72;28.67;;;1.70;99.90;;;;;;5032800;28;20217;-77
2022/01/11 07:06:41;;;;;;;65.90;28.40;;;1.80;99.90;;;;;;5032742;28;20189;-76
2022/01/11 07:09:07;;;;;;;71.33;29.17;;;1.80;99.90;;;;;;5049934;28;20375;-78
2022/01/11 07:11:33;;;;;;;65.43;28.17;;;1.80;99.90;;;;;;5032072;28;20272;-78
2022/01/11 07:14:01;;;;;;;89.93;29.17;;;1.80;99.90;;;;;;5032377;28;20440;-77
2022/01/11 07:16:27;;;;;;;73.95;29.20;;;1.70;99.90;;;;;;5049546;28;20497;-77
2022/01/11 07:18:52;;;;;;;79.27;28.10;;;1.80;99.90;;;;;;5050103;28;20210;-78
2022/01/11 07:21:18;;;;;;;77.37;30.10;;;1.80;99.90;;;;;;5032317;28;20177;-78
2022/01/11 07:23:44;;;;;;;70.83;27.50;;;1.70;99.90;;;;;;5050021;28;20240;-75
2022/01/11 07:26:09;;;;;;;81.30;30.00;;;1.60;99.90;;;;;;5031598;28;20405;-76
2022/01/11 07:28:35;;;;;;;71.83;28.70;;;1.60;99.90;;;;;;5049420;28;20192;-76
2022/01/11 07:31:01;;;;;;;71.35;28.20;;;1.70;99.90;;;;;;5049181;28;20224;-74
2022/01/11 07:33:27;;;;;;;78.97;27.75;;;1.70;99.90;;;;;;5048754;28;20219;-74
2022/01/11 07:35:53;;;;;;;80.37;29.43;;;1.70;99.90;;;;;;5049025;28;20701;-75
2022/01/11 07:38:18;;;;;;;76.03;30.07;;;1.70;99.90;;;;;;5048847;28;20189;-75
2022/01/11 07:40:44;;;;;;;81.70;29.90;;;1.70;99.90;;;;;;5030696;28;20183;-77
2022/01/11 07:43:10;;;;;;;72.30;30.40;;;1.70;99.90;;;;;;5031002;28;20227;-77
2022/01/11 07:45:36;;;;;;;75.23;30.57;;;1.70;99.90;;;;;;5030761;28;20211;-77
2022/01/11 07:48:02;;;;;;;70.50;28.40;;;1.70;99.90;;;;;;5048366;28;20418;-75
2022/01/11 07:50:27;;;;;;;77.90;29.93;;;1.70;99.90;;;;;;5030356;28;20422;-75
2022/01/11 07:52:53;;;;;;;71.30;31.10;;;1.70;99.90;;;;;;5030382;28;20201;-76
2022/01/11 07:55:19;;;;;;;68.20;28.27;;;1.80;99.90;;;;;;5030040;28;20264;-74
2022/01/11 07:57:45;;;;;;;83.28;29.90;;;1.80;99.90;;;;;;5047939;28;20248;-77
2022/01/11 08:00:12;;;;;;;78.32;31.40;;;1.80;99.90;;;;;;5029970;28;20188;-75
2022/01/11 08:02:38;;;;;;;81.80;30.88;;;1.80;99.90;;;;;;5030055;28;20189;-75
2022/01/11 08:05:05;;;;;;;82.45;31.48;;;1.80;99.90;;;;;;5030017;28;20260;-75
2022/01/11 08:07:31;;;;;;;66.30;31.35;;;1.80;99.90;;;;;;5029989;28;20189;-75
2022/01/11 08:09:57;;;;;;;88.00;32.90;;;1.90;99.90;;;;;;5047868;28;20263;-75
2022/01/11 08:12:22;;;;;;;84.87;34.23;;;1.90;99.90;;;;;;5029749;28;20276;-75
2022/01/11 08:14:48;;;;;;;81.33;34.63;;;1.90;99.90;;;;;;5012499;28;20685;-74
2022/01/11 08:17:15;;;;;;;93.33;37.07;;;1.80;99.90;;;;;;5047776;28;20215;-76
2022/01/11 08:19:41;;;;;;;89.15;37.75;;;1.90;99.90;;;;;;5047723;28;20518;-76
2022/01/11 08:22:07;;;;;;;83.47;38.20;;;2.00;99.90;;;;;;5047448;28;20268;-76
2022/01/11 08:24:32;;;;;;;69.47;33.53;;;2.10;99.90;;;;;;5047398;28;20196;-76
2022/01/11 08:26:58;;;;;;;58.53;29.60;;;2.10;99.90;;;;;;5047246;28;20189;-76
2022/01/11 08:29:24;;;;;;;74.33;29.50;;;2.10;99.90;;;;;;5029194;28;20188;-76
2022/01/11 08:31:50;;;;;;;62.37;30.80;;;2.20;99.90;;;;;;5047218;28;20531;-76
2022/01/11 08:34:16;;;;;;;63.45;28.83;;;2.20;99.90;;;;;;5046995;28;20460;-76
2022/01/11 08:36:44;;;;;;;53.80;27.10;;;2.30;99.90;;;;;;5047217;28;20214;-76
2022/01/11 08:39:11;;;;;;;54.33;25.80;;;2.30;99.90;;;;;;5029395;28;20190;-76
2022/01/11 08:41:40;;;;;;;55.80;29.88;;;2.30;99.90;;;;;;5046903;28;20183;-76
2022/01/11 08:44:06;;;;;;;65.82;30.90;;;2.40;99.90;;;;;;5028653;28;20287;-76
2022/01/11 08:46:32;;;;;;;69.50;31.65;;;2.40;99.90;;;;;;5047044;28;20697;-76
2022/01/11 08:48:58;;;;;;;73.87;28.60;;;2.40;99.90;;;;;;5029336;28;20199;-75
2022/01/11 08:51:24;;;;;;;60.70;28.10;;;2.40;99.90;;;;;;5047584;28;20724;-75
2022/01/11 08:53:50;;;;;;;64.30;30.15;;;2.50;99.90;;;;;;5047399;28;20924;-75
2022/01/11 08:56:17;;;;;;;58.63;28.60;;;2.60;99.90;;;;;;5047400;28;20221;-75
2022/01/11 08:58:44;;;;;;;63.28;26.98;;;2.60;99.90;;;;;;5047487;28;20197;-75
2022/01/11 09:01:10;;;;;;;53.10;27.40;;;2.80;99.90;;;;;;5047463;28;20654;-75
2022/01/11 09:03:35;;;;;;;71.90;28.88;;;2.80;99.90;;;;;;5047207;28;20200;-76
2022/01/11 09:06:03;;;;;;;59.70;29.27;;;2.70;99.90;;;;;;5047511;28;20677;-75
2022/01/11 09:08:29;;;;;;;61.50;27.85;;;2.70;99.90;;;;;;5029701;28;20217;-76
2022/01/11 09:10:54;;;;;;;43.17;24.97;;;2.70;99.90;;;;;;5047418;28;20255;-75
2022/01/11 09:13:20;;;;;;;63.93;31.50;;;2.80;99.90;;;;;;5012632;28;20857;-75
2022/01/11 09:15:46;;;;;;;58.53;30.63;;;2.90;99.90;;;;;;5046996;28;20239;-76
2022/01/11 09:18:12;;;;;;;54.03;29.77;;;2.90;99.90;;;;;;5046861;28;20427;-76
2022/01/11 09:20:38;;;;;;;49.05;26.25;;;3.00;99.90;;;;;;5047031;28;20549;-75
2022/01/11 09:23:04;;;;;;;48.13;25.20;;;3.00;99.90;;;;;;5046801;28;20189;-75
2022/01/11 09:25:30;;;;;;;41.73;25.50;;;3.10;99.90;;;;;;5047946;28;20422;-75
2022/01/11 09:27:55;;;;;;;45.60;24.27;;;3.10;99.90;;;;;;5033019;28;20181;-75
2022/01/11 09:30:21;;;;;;;36.93;20.03;;;3.30;99.90;;;;;;5033086;28;20186;-75
2022/01/11 09:32:47;;;;;;;35.33;17.53;;;3.50;99.90;;;;;;5032820;28;20190;-75
2022/01/11 09:35:14;;;;;;;38.20;20.90;;;3.50;99.90;;;;;;5032488;28;20248;-75
2022/01/11 09:37:40;;;;;;;36.38;20.48;;;3.70;99.90;;;;;;5032495;28;20428;-75
2022/01/11 09:40:09;;;;;;;35.65;21.02;;;3.70;99.90;;;;;;5032634;28;20225;-75
2022/01/11 09:42:35;;;;;;;44.38;20.20;;;3.80;99.90;;;;;;5050391;28;20218;-75
2022/01/11 09:45:04;;;;;;;36.55;21.33;;;3.80;99.90;;;;;;5032157;28;20247;-75
2022/01/11 09:47:30;;;;;;;33.80;19.50;;;3.90;99.90;;;;;;5032602;28;20190;-75
2022/01/11 09:49:55;;;;;;;39.63;23.50;;;3.90;99.90;;;;;;5050138;28;20182;-75
2022/01/11 09:52:25;;;;;;;41.87;23.47;;;3.80;99.90;;;;;;5050016;28;20422;-75
2022/01/11 09:54:52;;;;;;;34.85;20.40;;;3.80;99.90;;;;;;5049740;28;20197;-74
2022/01/11 09:57:18;;;;;;;38.73;21.20;;;3.80;99.90;;;;;;5049695;28;20222;-75
2022/01/11 09:59:43;;;;;;;31.92;19.50;;;3.90;99.90;;;;;;5049566;28;20906;-75
2022/01/11 10:02:11;;;;;;;34.93;21.87;;;4.10;99.90;;;;;;5049939;28;20186;-75
2022/01/11 10:04:38;;;;;;;34.10;20.00;;;4.20;99.90;;;;;;5049768;28;20210;-75
2022/01/11 10:07:07;;;;;;;31.75;19.67;;;4.30;99.90;;;;;;5050226;28;20201;-75
2022/01/11 10:09:48;;;;;;;36.15;20.15;;;4.20;99.90;;;;;;5032007;28;20239;-75
2022/01/11 10:12:15;;;;;;;27.58;17.67;;;4.30;99.90;;;;;;5050179;28;20259;-75
2022/01/11 10:14:50;;;;;;;36.72;17.80;;;4.30;99.90;;;;;;5050148;28;20202;-75
2022/01/11 10:17:23;;;;;;;22.75;14.90;;;4.40;99.90;;;;;;5049825;28;20212;-75
2022/01/11 10:20:26;;;;;;;25.33;14.57;;;4.50;99.90;;;;;;5049885;28;20565;-75
2022/01/11 10:22:54;;;;;;;22.67;13.80;;;4.60;99.90;;;;;;5044567;28;20200;-75
2022/01/11 10:25:20;;;;;;;24.83;15.13;;;4.70;99.90;;;;;;5049168;28;20510;-75
2022/01/11 10:28:02;;;;;;;20.47;13.17;;;4.80;99.90;;;;;;5049269;28;20219;-75
2022/01/11 10:30:29;;;;;;;21.17;13.93;;;4.90;99.90;;;;;;5049096;28;20417;-74
2022/01/11 10:32:57;;;;;;;22.23;12.07;;;5.00;99.90;;;;;;5049073;28;20449;-75
2022/01/11 10:35:32;;;;;;;17.47;11.80;;;5.30;99.90;;;;;;5048965;28;20438;-75
2022/01/11 10:38:00;;;;;;;20.77;11.40;;;5.30;99.90;;;;;;5048134;28;20405;-75
2022/01/11 10:40:27;;;;;;;15.77;10.40;;;5.30;99.90;;;;;;5048930;28;20449;-75
2022/01/11 10:43:14;;;;;;;18.05;10.18;;;5.30;99.90;;;;;;5030739;28;20494;-75
2022/01/11 10:45:46;;;;;;;14.93;9.53;;;5.30;99.90;;;;;;5048974;28;20187;-75
2022/01/11 10:48:13;;;;;;;16.40;10.20;;;5.30;99.90;;;;;;5014477;28;20437;-75
2022/01/11 10:50:43;;;;;;;21.17;10.60;;;5.30;99.90;;;;;;5048677;28;20418;-74
2022/01/11 10:53:19;;;;;;;13.90;9.87;;;5.20;99.90;;;;;;5048765;28;20433;-73
2022/01/11 10:55:49;;;;;;;17.70;10.67;;;5.20;99.90;;;;;;5030758;28;20461;-74
2022/01/11 10:58:15;;;;;;;21.63;10.13;;;5.40;99.90;;;;;;5048826;28;20994;-75
2022/01/11 11:00:43;;;;;;;14.00;9.83;;;5.40;99.90;;;;;;5048760;28;20533;-74
2022/01/11 11:03:14;;;;;;;17.90;9.50;;;5.50;99.90;;;;;;5030488;28;20433;-74
2022/01/11 11:05:58;;;;;;;17.30;8.63;;;5.60;99.90;;;;;;5048648;28;21079;-75
2022/01/11 11:08:26;;;;;;;11.43;7.93;;;5.80;99.90;;;;;;5048472;28;20430;-74
2022/01/11 11:11:00;;;;;;;11.47;7.20;;;5.90;99.90;;;;;;5048466;28;20424;-74
2022/01/11 11:13:30;;;;;;;14.50;8.30;;;6.40;99.90;;;;;;5048188;28;20526;-75
2022/01/11 11:16:17;;;;;;;14.53;8.17;;;6.50;99.90;;;;;;5048303;28;20801;-75
2022/01/11 11:18:57;;;;;;;11.63;7.43;;;6.50;99.90;;;;;;5048098;28;20517;-75
2022/01/11 11:21:30;;;;;;;13.53;7.30;;;7.70;99.90;;;;;;5048377;28;20766;-75
2022/01/11 11:24:04;;;;;;;11.40;7.00;;;8.50;99.90;;;;;;5048083;28;20438;-75
2022/01/11 11:26:33;;;;;;;8.23;5.80;;;9.70;99.90;;;;;;5030524;28;20915;-75
2022/01/11 11:28:59;;;;;;;10.27;6.77;;;9.30;97.80;;;;;;5048107;28;20485;-74
2022/01/11 11:31:25;;;;;;;13.13;7.50;;;8.80;98.20;;;;;;5048148;28;20445;-74
2022/01/11 11:33:51;;;;;;;9.67;7.87;;;8.40;99.30;;;;;;5048199;28;20492;-74
2022/01/11 11:36:18;;;;;;;13.60;7.90;;;7.90;99.90;;;;;;5047895;28;20461;-75
2022/01/11 11:39:07;;;;;;;9.60;6.93;;;7.40;99.90;;;;;;5048001;28;20505;-75
2022/01/11 11:41:36;;;;;;;12.77;7.30;;;8.10;99.90;;;;;;5029590;28;20522;-75
2022/01/11 11:44:14;;;;;;;11.40;7.40;;;8.60;99.90;;;;;;5047796;28;20531;-75
2022/01/11 11:46:47;;;;;;;15.70;7.27;;;9.50;98.50;;;;;;5047651;28;20656;-75
2022/01/11 11:49:36;;;;;;;6.80;6.10;;;10.00;97.80;;;;;;5047622;28;20512;-76
2022/01/11 11:52:33;;;;;;;7.50;6.33;;;9.30;95.40;;;;;;5047396;28;20437;-74
2022/01/11 11:54:59;;;;;;;11.30;5.27;;;8.50;96.50;;;;;;5026776;28;20464;-75
2022/01/11 11:57:28;;;;;;;9.03;5.77;;;7.80;96.40;;;;;;5047595;28;20502;-75
2022/01/11 12:00:11;;;;;;;5.07;4.60;;;7.50;97.90;;;;;;5047313;28;20430;-75
2022/01/11 12:02:49;;;;;;;7.63;4.33;;;7.20;98.90;;;;;;5047502;28;20966;-75
2022/01/11 12:05:38;;;;;;;5.40;4.57;;;7.00;99.10;;;;;;5047289;28;21005;-75
2022/01/11 12:08:41;;;;;;;6.10;4.63;;;6.90;99.00;;;;;;5047466;28;20750;-75
2022/01/11 12:11:10;;;;;;;11.03;5.00;;;6.80;98.90;;;;;;4978439;28;20845;-75
2022/01/11 12:13:40;;;;;;;3.90;3.30;;;6.70;98.90;;;;;;5047169;28;20477;-74
2022/01/11 12:16:26;;;;;;;7.60;5.60;;;6.70;98.20;;;;;;5047475;28;20535;-75
2022/01/11 12:19:00;;;;;;;8.23;4.00;;;6.40;97.30;;;;;;5029932;28;20468;-76
2022/01/11 12:21:29;;;;;;;5.00;3.70;;;6.40;99.90;;;;;;5047039;28;20771;-75
2022/01/11 12:23:57;;;;;;;4.83;3.73;;;6.50;99.10;;;;;;5047126;28;20434;-75
2022/01/11 12:26:28;;;;;;;6.60;4.83;;;6.60;98.40;;;;;;5047082;28;20915;-75
2022/01/11 12:29:04;;;;;;;13.10;5.87;;;6.60;99.70;;;;;;5047207;28;20539;-75
2022/01/11 12:31:34;;;;;;;7.07;6.17;;;6.50;99.90;;;;;;5047003;28;20414;-75
2022/01/11 12:34:00;;;;;;;8.00;5.13;;;6.60;99.60;;;;;;5046814;28;20477;-75
2022/01/11 12:36:54;;;;;;;3.00;2.70;;;6.80;99.90;;;;;;5047578;28;20466;-74
2022/01/11 12:39:22;;;;;;;3.47;3.17;;;6.90;97.60;;;;;;5028723;28;20426;-75
2022/01/11 12:41:48;;;;;;;3.47;2.20;;;6.80;97.80;;;;;;5046948;28;20517;-75
2022/01/11 12:44:22;;;;;;;4.87;2.83;;;6.60;95.30;;;;;;5046777;28;20516;-75